Time;durP1;ratioP1;P1;durP2;ratioP2;P2;SDS_P1;SDS_P2;PMS_P1;PMS_P2;Temp;Humidity;BMP_temperature;BMP_pressure;BME280_temperature;BME280_humidity;BME280_pressure;Samples;Min_cycle;Max_cycle;Signal;HPM_P1;HPM_P2
2022/05/15 00:02:03;;;;;;;15.60;4.50;;;18.00;53.90;;;;;;5121932;28;20360;-65
2022/05/15 00:04:29;;;;;;;12.50;4.30;;;17.90;53.90;;;;;;5120160;28;20135;-65
2022/05/15 00:06:55;;;;;;;15.23;4.45;;;17.90;54.00;;;;;;5132469;27;20396;-65
2022/05/15 00:09:20;;;;;;;16.88;5.22;;;17.90;54.10;;;;;;5112873;28;20028;-65
2022/05/15 00:11:47;;;;;;;15.82;4.88;;;17.90;54.10;;;;;;5125667;28;20081;-65
2022/05/15 00:14:13;;;;;;;14.90;4.30;;;17.90;54.20;;;;;;5124308;28;20029;-65
2022/05/15 00:16:39;;;;;;;13.43;4.63;;;17.90;54.20;;;;;;5126942;28;20053;-65
2022/05/15 00:19:06;;;;;;;15.00;4.25;;;17.90;54.20;;;;;;5128254;27;20019;-65
2022/05/15 00:21:31;;;;;;;14.20;4.40;;;17.80;54.20;;;;;;5115766;28;20072;-65
2022/05/15 00:23:58;;;;;;;18.90;4.85;;;17.80;54.20;;;;;;5117491;28;20355;-65
2022/05/15 00:26:23;;;;;;;11.77;4.40;;;17.80;54.20;;;;;;5130252;28;20047;-65
2022/05/15 00:28:50;;;;;;;18.67;4.97;;;17.80;54.20;;;;;;5127645;27;20609;-65
2022/05/15 00:31:15;;;;;;;14.07;4.60;;;17.80;54.20;;;;;;5095455;28;20034;-65
2022/05/15 00:33:44;;;;;;;13.18;4.70;;;17.80;54.30;;;;;;5126516;28;20512;-65
2022/05/15 00:36:10;;;;;;;15.63;4.45;;;17.80;54.40;;;;;;5131416;27;20371;-65
2022/05/15 00:38:35;;;;;;;13.50;4.82;;;17.70;54.40;;;;;;5137989;27;20114;-65
2022/05/15 00:41:01;;;;;;;17.58;5.07;;;17.70;54.40;;;;;;5130357;27;20130;-65
2022/05/15 00:43:53;;;;;;;16.52;4.03;;;17.70;54.40;;;;;;5138295;27;20125;-65
2022/05/15 00:46:24;;;;;;;13.73;4.25;;;17.70;54.40;;;;;;5122213;27;20019;-65
2022/05/15 00:48:52;;;;;;;15.68;4.28;;;17.60;54.40;;;;;;5136115;27;20089;-65
2022/05/15 00:51:37;;;;;;;18.92;4.88;;;17.60;54.40;;;;;;5121646;27;20427;-65
2022/05/15 00:54:30;;;;;;;13.05;3.90;;;17.60;54.50;;;;;;5123794;27;20039;-65
2022/05/15 00:57:01;;;;;;;16.25;4.47;;;17.60;54.40;;;;;;5102381;28;20036;-65
2022/05/15 00:59:28;;;;;;;;;;;17.60;54.50;;;;;;5122972;27;20027;-65
2022/05/15 01:01:54;;;;;;;11.88;3.78;;;17.50;54.40;;;;;;5123464;27;19994;-64
2022/05/15 01:04:21;;;;;;;12.90;3.80;;;17.50;54.60;;;;;;5128558;27;20452;-64
2022/05/15 01:06:46;;;;;;;15.25;4.82;;;17.50;54.70;;;;;;5123743;27;20030;-65
2022/05/15 01:09:14;;;;;;;16.17;4.90;;;17.50;54.70;;;;;;5117742;27;20019;-65
2022/05/15 01:11:42;;;;;;;14.45;4.80;;;17.50;54.70;;;;;;5106015;27;20355;-65
2022/05/15 01:14:12;;;;;;;14.63;4.38;;;17.50;54.80;;;;;;5134118;27;20062;-65
2022/05/15 01:16:39;;;;;;;18.73;5.07;;;17.50;54.80;;;;;;5118393;27;20333;-65
2022/05/15 01:19:06;;;;;;;14.18;4.60;;;17.40;54.70;;;;;;5108867;27;20030;-65
2022/05/15 01:21:57;;;;;;;13.82;4.28;;;17.40;54.70;;;;;;5122202;27;20118;-65
2022/05/15 01:24:25;;;;;;;15.93;4.50;;;17.40;54.70;;;;;;5133317;27;20019;-65
2022/05/15 01:26:51;;;;;;;14.25;4.80;;;17.40;54.70;;;;;;5119480;27;20076;-65
2022/05/15 01:29:18;;;;;;;14.23;3.80;;;17.40;54.70;;;;;;5136357;27;20031;-65
2022/05/15 01:31:48;;;;;;;13.95;4.35;;;17.40;54.80;;;;;;5110667;27;20026;-65
2022/05/15 01:34:14;;;;;;;14.55;4.30;;;17.30;54.70;;;;;;5130619;27;20074;-65
2022/05/15 01:36:40;;;;;;;18.52;4.45;;;17.30;54.70;;;;;;5127411;27;20059;-65
2022/05/15 01:39:07;;;;;;;18.17;4.68;;;17.30;54.70;;;;;;5135856;27;20019;-65
2022/05/15 01:41:33;;;;;;;15.88;4.65;;;17.30;54.80;;;;;;5121388;27;20023;-65
2022/05/15 01:43:58;;;;;;;19.02;4.78;;;17.30;54.70;;;;;;5134193;27;20072;-65
2022/05/15 01:46:28;;;;;;;14.98;3.72;;;17.30;54.70;;;;;;5116625;27;20482;-65
2022/05/15 01:48:56;;;;;;;15.85;4.47;;;17.30;54.80;;;;;;5123030;27;20038;-65
2022/05/15 01:51:23;;;;;;;19.70;4.60;;;17.20;54.70;;;;;;5123000;27;20023;-66
2022/05/15 01:53:50;;;;;;;15.30;4.30;;;17.30;54.80;;;;;;5132273;27;20040;-65
2022/05/15 01:56:16;;;;;;;15.23;4.30;;;17.20;54.80;;;;;;5135808;27;20023;-65
2022/05/15 01:58:41;;;;;;;11.77;3.80;;;17.20;54.70;;;;;;5128636;27;20046;-65
2022/05/15 02:01:07;;;;;;;13.82;4.38;;;17.20;54.70;;;;;;5117096;27;20514;-65
2022/05/15 02:03:34;;;;;;;14.07;3.95;;;17.20;54.70;;;;;;5115887;27;20031;-65
2022/05/15 02:06:01;;;;;;;16.05;4.78;;;17.20;54.80;;;;;;5114742;28;20020;-65
2022/05/15 02:08:32;;;;;;;15.95;4.57;;;17.10;54.70;;;;;;5114044;28;20108;-65
2022/05/15 02:10:59;;;;;;;;;;;17.10;54.80;;;;;;5127159;27;20019;-65
2022/05/15 02:13:26;;;;;;;16.08;3.92;;;17.10;54.80;;;;;;5126785;27;19942;-65
2022/05/15 02:15:52;;;;;;;15.75;3.95;;;17.10;54.80;;;;;;5132405;27;20034;-65
2022/05/15 02:18:17;;;;;;;13.93;3.97;;;17.10;54.90;;;;;;5124586;27;20027;-65
2022/05/15 02:20:43;;;;;;;15.70;4.45;;;17.10;54.90;;;;;;5129315;27;20059;-65
2022/05/15 02:23:08;;;;;;;11.73;4.22;;;17.10;54.90;;;;;;5115766;27;20035;-65
2022/05/15 02:25:35;;;;;;;14.05;3.92;;;17.00;55.00;;;;;;5117179;27;20024;-65
2022/05/15 02:28:01;;;;;;;15.00;4.70;;;17.10;55.10;;;;;;5133321;27;20019;-65
2022/05/15 02:30:27;;;;;;;14.25;4.22;;;17.10;55.10;;;;;;5127661;27;20088;-65
2022/05/15 02:32:52;;;;;;;11.13;3.83;;;17.00;55.10;;;;;;5133254;27;20064;-65
2022/05/15 02:35:18;;;;;;;17.08;5.15;;;17.00;55.10;;;;;;5135819;27;20131;-65
2022/05/15 02:37:48;;;;;;;15.73;4.38;;;17.00;55.20;;;;;;5132319;27;20035;-65
2022/05/15 02:40:17;;;;;;;11.32;3.88;;;17.00;55.30;;;;;;5133370;27;20023;-65
2022/05/15 02:42:42;;;;;;;12.63;4.28;;;17.00;55.40;;;;;;5131717;27;20528;-65
2022/05/15 02:45:09;;;;;;;17.02;4.03;;;17.00;55.50;;;;;;5135803;27;20160;-65
2022/05/15 02:47:34;;;;;;;15.13;4.55;;;17.00;55.60;;;;;;5103485;27;20038;-65
2022/05/15 02:52:45;;;;;;;16.58;4.13;;;16.90;55.60;;;;;;5131912;27;20031;-65
2022/05/15 02:55:11;;;;;;;15.75;4.10;;;16.90;55.70;;;;;;5133070;27;20038;-65
2022/05/15 02:57:40;;;;;;;12.73;4.20;;;16.90;55.70;;;;;;5116291;27;20023;-65
2022/05/15 03:00:09;;;;;;;13.77;4.03;;;16.90;55.80;;;;;;5119417;27;20180;-64
2022/05/15 03:02:40;;;;;;;14.25;4.53;;;16.90;55.90;;;;;;5116724;27;20031;-64
2022/05/15 03:05:07;;;;;;;15.07;4.25;;;16.90;55.90;;;;;;5134185;27;20027;-64
2022/05/15 03:07:33;;;;;;;13.38;4.25;;;16.80;56.00;;;;;;5128667;27;20019;-64
2022/05/15 03:09:58;;;;;;;17.42;5.43;;;16.80;56.10;;;;;;5130836;27;20495;-64
2022/05/15 03:12:24;;;;;;;12.63;4.22;;;16.80;56.10;;;;;;5124855;27;20025;-64
2022/05/15 03:14:50;;;;;;;15.30;3.58;;;16.80;56.20;;;;;;5130856;27;20376;-64
2022/05/15 03:17:17;;;;;;;14.45;4.22;;;16.80;56.20;;;;;;5113476;28;20372;-64
2022/05/15 03:19:44;;;;;;;12.35;4.28;;;16.80;56.30;;;;;;5126134;27;20109;-64
2022/05/15 03:22:10;;;;;;;14.02;4.20;;;16.80;56.40;;;;;;5128093;27;20031;-64
2022/05/15 03:24:35;;;;;;;18.65;4.10;;;16.80;56.40;;;;;;5132791;27;20035;-64
2022/05/15 03:27:01;;;;;;;12.95;3.97;;;16.70;56.40;;;;;;5126192;27;20035;-64
2022/05/15 03:29:27;;;;;;;13.13;4.78;;;16.70;56.60;;;;;;5123229;28;20050;-64
2022/05/15 03:31:53;;;;;;;14.02;4.13;;;16.70;56.70;;;;;;5120284;27;20111;-64
2022/05/15 03:34:20;;;;;;;19.30;4.22;;;16.70;56.70;;;;;;5122789;28;20030;-64
2022/05/15 03:36:51;;;;;;;14.52;4.65;;;16.70;56.80;;;;;;5131978;28;20047;-64
2022/05/15 03:39:19;;;;;;;13.40;4.40;;;16.70;56.80;;;;;;5133157;27;20405;-64
2022/05/15 03:41:49;;;;;;;11.73;3.70;;;16.70;56.90;;;;;;5126691;27;20019;-64
2022/05/15 03:44:15;;;;;;;14.27;4.00;;;16.60;57.00;;;;;;5132798;27;20111;-64
2022/05/15 03:46:43;;;;;;;13.93;4.07;;;16.60;57.00;;;;;;5127729;27;20055;-64
2022/05/15 03:49:11;;;;;;;12.85;4.22;;;16.60;57.10;;;;;;5117977;28;20020;-64
2022/05/15 03:51:37;;;;;;;13.38;4.80;;;16.60;57.90;;;;;;5130880;28;20020;-64
2022/05/15 03:54:03;;;;;;;13.10;4.15;;;16.50;57.20;;;;;;5125080;27;20376;-64
2022/05/15 03:59:14;;;;;;;15.00;4.68;;;16.50;57.40;;;;;;5139131;27;20038;-64
2022/05/15 04:01:40;;;;;;;14.23;4.05;;;16.50;57.50;;;;;;5119449;28;20027;-64
2022/05/15 04:04:07;;;;;;;14.75;4.82;;;16.50;57.60;;;;;;5111418;28;20030;-64
2022/05/15 04:06:33;;;;;;;15.98;4.53;;;16.50;57.70;;;;;;5112249;28;20028;-64
2022/05/15 04:09:00;;;;;;;15.05;4.05;;;16.50;57.60;;;;;;5112670;28;20031;-64
2022/05/15 04:11:26;;;;;;;14.77;4.10;;;16.50;57.80;;;;;;5123870;27;20067;-64
2022/05/15 04:13:51;;;;;;;15.63;4.00;;;16.50;57.80;;;;;;5106298;27;20122;-64
2022/05/15 04:16:17;;;;;;;18.10;4.43;;;16.40;57.90;;;;;;5117324;27;20027;-64
2022/05/15 04:18:43;;;;;;;13.50;3.60;;;16.40;57.90;;;;;;5123828;27;20038;-64
2022/05/15 04:21:10;;;;;;;12.63;4.32;;;16.40;58.00;;;;;;5102831;27;20030;-64
2022/05/15 04:23:36;;;;;;;14.63;4.50;;;16.40;58.00;;;;;;5121692;27;20104;-64
2022/05/15 04:26:02;;;;;;;11.82;4.30;;;16.40;58.00;;;;;;5118051;27;20023;-64
2022/05/15 04:28:28;;;;;;;14.35;3.90;;;16.40;58.00;;;;;;5102361;28;20022;-64
2022/05/15 04:30:54;;;;;;;14.70;4.55;;;16.40;58.10;;;;;;5118722;27;20016;-64
2022/05/15 04:33:20;;;;;;;16.08;4.60;;;16.40;58.00;;;;;;5122203;27;20464;-64
2022/05/15 04:35:45;;;;;;;15.07;4.30;;;16.40;58.00;;;;;;5116664;27;20048;-64
2022/05/15 04:38:12;;;;;;;13.80;4.50;;;16.40;58.00;;;;;;5117068;27;20151;-64
2022/05/15 04:40:38;;;;;;;12.18;3.88;;;16.40;58.00;;;;;;5123133;27;20463;-64
2022/05/15 04:43:04;;;;;;;14.70;4.00;;;16.40;58.00;;;;;;5130512;27;20450;-65
2022/05/15 04:45:30;;;;;;;13.43;4.22;;;16.40;58.10;;;;;;5115036;27;20035;-65
2022/05/15 04:47:55;;;;;;;17.10;4.97;;;16.50;58.10;;;;;;5117283;27;20027;-65
2022/05/15 04:50:21;;;;;;;13.05;4.45;;;16.40;58.10;;;;;;5112577;27;20118;-64
2022/05/15 04:52:47;;;;;;;12.07;3.90;;;16.50;58.10;;;;;;5129868;27;20023;-65
2022/05/15 04:55:15;;;;;;;16.83;4.47;;;16.50;58.10;;;;;;5132224;27;20118;-65
2022/05/15 04:57:41;;;;;;;13.63;4.32;;;16.50;58.20;;;;;;5135697;27;20056;-65
2022/05/15 05:00:14;;;;;;;14.07;4.50;;;16.50;58.10;;;;;;5127161;27;20090;-64
2022/05/15 05:02:40;;;;;;;16.92;4.63;;;16.50;58.20;;;;;;5126886;27;20030;-63
2022/05/15 05:05:06;;;;;;;15.20;4.00;;;16.60;58.20;;;;;;5127798;27;20201;-63
2022/05/15 05:07:32;;;;;;;12.38;4.25;;;16.60;58.10;;;;;;5127477;27;20031;-63
2022/05/15 05:09:57;;;;;;;19.33;4.95;;;16.60;58.10;;;;;;5120256;27;20015;-63
2022/05/15 05:12:23;;;;;;;9.77;4.32;;;16.60;58.10;;;;;;5127873;27;20427;-63
2022/05/15 05:14:49;;;;;;;11.98;3.85;;;16.60;58.00;;;;;;5136016;27;20124;-63
2022/05/15 05:17:15;;;;;;;13.73;4.65;;;16.70;58.00;;;;;;5133285;27;20023;-63
2022/05/15 05:19:42;;;;;;;14.00;4.13;;;16.90;57.70;;;;;;5134860;27;20035;-63
2022/05/15 05:22:07;;;;;;;14.05;4.20;;;17.20;57.20;;;;;;5118769;27;20036;-63
2022/05/15 05:24:33;;;;;;;12.85;4.05;;;17.30;57.00;;;;;;5117140;27;20043;-63
2022/05/15 05:26:59;;;;;;;15.27;4.40;;;17.20;57.00;;;;;;5134893;27;20024;-63
2022/05/15 05:29:25;;;;;;;13.15;4.70;;;17.30;57.10;;;;;;5135113;27;20027;-63
2022/05/15 05:31:51;;;;;;;12.10;4.32;;;17.30;57.10;;;;;;5130572;27;20019;-63
2022/05/15 05:34:17;;;;;;;14.57;4.00;;;17.40;56.90;;;;;;5117085;27;20108;-63
2022/05/15 05:36:43;;;;;;;14.55;4.50;;;17.50;56.80;;;;;;5128967;27;20047;-63
2022/05/15 05:39:09;;;;;;;13.10;3.67;;;17.60;56.70;;;;;;5135698;27;20034;-63
2022/05/15 05:41:35;;;;;;;14.73;4.97;;;17.70;56.60;;;;;;5131853;27;20015;-63
2022/05/15 05:44:00;;;;;;;11.82;4.40;;;17.80;56.50;;;;;;5137630;27;20031;-63
2022/05/15 05:46:29;;;;;;;13.35;3.78;;;17.90;56.40;;;;;;5126509;27;20042;-62
2022/05/15 05:48:57;;;;;;;14.10;4.20;;;17.90;56.30;;;;;;5118103;27;20084;-63
2022/05/15 05:51:23;;;;;;;15.43;4.22;;;18.10;56.70;;;;;;5132396;27;20106;-63
2022/05/15 05:53:49;;;;;;;14.93;4.13;;;18.20;56.00;;;;;;5135597;27;20023;-63
2022/05/15 05:56:15;;;;;;;11.30;3.95;;;18.30;55.80;;;;;;5130944;27;20088;-63
2022/05/15 05:58:41;;;;;;;12.30;3.92;;;18.40;55.60;;;;;;5117199;27;20034;-63
2022/05/15 06:01:07;;;;;;;12.38;4.47;;;18.40;55.40;;;;;;5121913;27;20031;-63
2022/05/15 06:06:17;;;;;;;12.93;3.50;;;18.60;54.90;;;;;;5123520;27;20089;-62
2022/05/15 06:08:43;;;;;;;12.50;4.18;;;18.70;54.70;;;;;;5116547;27;20045;-62
2022/05/15 06:11:10;;;;;;;11.23;3.95;;;18.80;54.50;;;;;;5118974;27;20023;-62
2022/05/15 06:13:35;;;;;;;17.48;4.65;;;19.00;54.30;;;;;;5134936;27;20042;-62
2022/05/15 06:16:02;;;;;;;10.25;3.65;;;19.10;54.00;;;;;;5136596;27;20023;-62
2022/05/15 06:18:28;;;;;;;11.55;4.10;;;19.20;53.70;;;;;;5128465;27;20038;-62
2022/05/15 06:20:54;;;;;;;12.40;3.63;;;19.30;53.50;;;;;;5132069;27;20080;-62
2022/05/15 06:23:21;;;;;;;10.77;3.67;;;19.40;53.30;;;;;;5115923;27;20450;-62
2022/05/15 06:25:46;;;;;;;11.05;3.97;;;19.60;53.20;;;;;;5116112;27;20031;-63
2022/05/15 06:28:12;;;;;;;13.45;3.90;;;19.80;52.90;;;;;;5122663;27;20397;-64
2022/05/15 06:30:38;;;;;;;14.27;4.35;;;19.90;52.50;;;;;;5134922;27;20153;-64
2022/05/15 06:33:05;;;;;;;12.35;3.83;;;20.10;52.30;;;;;;5118136;27;20020;-63
2022/05/15 06:35:31;;;;;;;11.98;4.63;;;20.20;52.10;;;;;;5102958;27;20380;-63
2022/05/15 06:38:00;;;;;;;12.63;4.15;;;20.30;51.90;;;;;;5123326;27;20032;-63
2022/05/15 06:40:26;;;;;;;12.50;4.55;;;20.50;51.60;;;;;;5116221;27;20059;-64
2022/05/15 06:42:52;;;;;;;11.48;4.38;;;20.60;51.40;;;;;;5129029;27;20054;-64
2022/05/15 06:45:18;;;;;;;14.25;4.57;;;20.70;51.30;;;;;;5129483;27;20020;-63
2022/05/15 06:47:44;;;;;;;13.10;4.05;;;20.70;51.00;;;;;;5119000;27;20032;-62
2022/05/15 06:50:10;;;;;;;14.40;4.63;;;20.80;50.90;;;;;;5131273;27;20337;-62
2022/05/15 06:52:37;;;;;;;14.02;4.75;;;21.00;50.70;;;;;;5134076;27;20055;-63
2022/05/15 06:55:17;;;;;;;16.60;4.80;;;21.10;50.60;;;;;;5135988;27;20080;-63
2022/05/15 06:57:43;;;;;;;15.07;4.55;;;21.30;50.30;;;;;;5131583;27;20039;-63
2022/05/15 07:00:16;;;;;;;14.23;4.55;;;21.40;50.10;;;;;;5133351;27;20364;-63
2022/05/15 07:02:42;;;;;;;16.35;4.60;;;21.50;49.70;;;;;;5133281;27;20076;-63
2022/05/15 07:05:14;;;;;;;14.68;4.47;;;21.60;49.60;;;;;;5113571;27;20431;-62
2022/05/15 07:07:40;;;;;;;11.43;4.47;;;21.70;50.00;;;;;;5116827;27;20155;-63
2022/05/15 07:10:06;;;;;;;13.23;4.35;;;21.90;49.20;;;;;;5114570;28;20056;-62
2022/05/15 07:12:32;;;;;;;16.00;5.07;;;22.00;49.00;;;;;;5124905;27;20030;-62
2022/05/15 07:14:57;;;;;;;14.18;5.10;;;22.10;48.80;;;;;;5131919;27;20118;-63
2022/05/15 07:17:23;;;;;;;13.18;4.75;;;22.30;48.70;;;;;;5132680;27;20369;-62
2022/05/15 07:19:50;;;;;;;12.90;4.55;;;22.40;48.50;;;;;;5125761;27;20058;-62
2022/05/15 07:22:15;;;;;;;14.18;4.80;;;22.50;48.30;;;;;;5127768;27;20027;-63
2022/05/15 07:24:41;;;;;;;13.40;4.45;;;22.60;48.10;;;;;;5117568;27;20032;-62
2022/05/15 07:27:08;;;;;;;11.68;4.88;;;22.70;47.90;;;;;;5115603;28;20032;-62
2022/05/15 07:29:36;;;;;;;13.57;4.70;;;22.80;47.80;;;;;;5121835;27;20019;-62
2022/05/15 07:32:04;;;;;;;13.43;4.95;;;22.90;47.70;;;;;;5114934;28;20028;-62
2022/05/15 07:34:30;;;;;;;11.85;4.95;;;23.00;47.50;;;;;;5127537;28;20023;-62
2022/05/15 07:36:55;;;;;;;10.10;4.40;;;23.10;47.50;;;;;;5127156;27;20049;-62
2022/05/15 07:39:21;;;;;;;14.32;5.13;;;23.20;47.30;;;;;;5124604;28;20027;-63
2022/05/15 07:41:48;;;;;;;12.35;4.97;;;23.30;47.20;;;;;;5135856;27;20119;-63
2022/05/15 07:44:14;;;;;;;11.27;4.45;;;23.40;47.10;;;;;;5127387;27;20505;-64
2022/05/15 07:46:40;;;;;;;11.02;4.38;;;23.40;47.00;;;;;;5135067;27;20118;-62
2022/05/15 07:49:07;;;;;;;12.20;4.57;;;23.40;46.90;;;;;;5126004;27;20122;-63
2022/05/15 07:51:33;;;;;;;15.38;5.25;;;23.40;47.00;;;;;;5133655;27;20031;-63
2022/05/15 07:54:00;;;;;;;12.27;4.38;;;23.50;46.80;;;;;;5129628;27;20023;-62
2022/05/15 07:56:26;;;;;;;13.50;4.75;;;23.70;46.60;;;;;;5118983;27;20028;-63
2022/05/15 07:58:52;;;;;;;11.68;4.53;;;23.90;46.50;;;;;;5136076;27;20059;-64
2022/05/15 08:01:18;;;;;;;12.15;4.95;;;24.00;46.30;;;;;;5137858;27;20062;-63
2022/05/15 08:03:44;;;;;;;13.63;4.45;;;24.10;46.00;;;;;;5137420;27;20027;-63
2022/05/15 08:08:57;;;;;;;11.10;4.32;;;24.30;45.50;;;;;;5129878;27;20023;-64
2022/05/15 08:11:26;;;;;;;9.95;4.20;;;24.50;45.50;;;;;;5131640;27;20135;-64
2022/05/15 08:13:52;;;;;;;12.50;5.03;;;24.60;45.40;;;;;;5120007;27;20030;-64
2022/05/15 08:16:22;;;;;;;12.73;5.25;;;24.70;45.20;;;;;;5113878;27;20031;-64
2022/05/15 08:24:19;;;;;;;10.05;4.65;;;24.80;44.50;;;;;;5117228;27;20120;-62
2022/05/15 08:26:45;;;;;;;10.05;4.18;;;24.90;44.50;;;;;;5128549;27;20445;-63
2022/05/15 08:29:12;;;;;;;11.35;4.68;;;25.00;44.40;;;;;;5138086;27;20023;-62
2022/05/15 08:31:39;;;;;;;11.60;4.30;;;25.10;44.40;;;;;;5136731;27;20042;-63
2022/05/15 08:34:08;;;;;;;10.50;4.32;;;25.20;44.30;;;;;;5125038;27;20011;-63
2022/05/15 08:36:34;;;;;;;9.20;4.18;;;25.20;44.20;;;;;;5119887;27;20071;-63
2022/05/15 08:39:00;;;;;;;10.85;4.00;;;25.30;44.20;;;;;;5136330;27;20027;-63
2022/05/15 08:41:31;;;;;;;9.48;4.10;;;25.40;44.10;;;;;;5135701;27;20023;-63
2022/05/15 08:43:57;;;;;;;11.75;4.60;;;25.40;43.90;;;;;;5123096;27;20019;-63
2022/05/15 08:46:30;;;;;;;11.43;4.80;;;25.40;43.90;;;;;;5120081;27;20405;-63
2022/05/15 08:49:10;;;;;;;10.23;4.05;;;25.50;44.00;;;;;;5126586;27;20034;-63
2022/05/15 08:51:38;;;;;;;8.95;3.78;;;25.60;43.80;;;;;;5136008;27;20019;-63
2022/05/15 08:54:07;;;;;;;12.90;4.60;;;25.70;43.70;;;;;;5120628;27;20490;-63
2022/05/15 08:56:38;;;;;;;12.65;4.57;;;25.90;43.70;;;;;;5132165;27;20042;-63
2022/05/15 08:59:12;;;;;;;9.70;3.85;;;26.00;43.40;;;;;;5135999;27;20059;-63
2022/05/15 09:01:37;;;;;;;10.65;4.00;;;26.20;43.30;;;;;;5130062;27;20458;-63
2022/05/15 09:04:03;;;;;;;12.30;4.20;;;26.30;43.10;;;;;;5118038;28;20023;-63
2022/05/15 09:06:29;;;;;;;10.10;4.25;;;26.50;43.00;;;;;;5120011;27;20459;-63
2022/05/15 09:09:34;;;;;;;9.13;3.50;;;26.60;42.70;;;;;;5116871;27;20115;-63
2022/05/15 09:12:16;;;;;;;9.77;3.58;;;26.70;42.50;;;;;;5123688;27;20444;-63
2022/05/15 09:15:04;;;;;;;8.65;3.63;;;26.80;42.50;;;;;;5132530;27;20364;-63
2022/05/15 09:18:03;;;;;;;10.73;3.85;;;26.90;42.30;;;;;;5126653;27;20041;-63
2022/05/15 09:20:29;;;;;;;10.00;4.28;;;27.00;42.20;;;;;;5131095;27;20440;-63
2022/05/15 09:23:21;;;;;;;12.93;3.92;;;27.10;42.10;;;;;;5120401;27;20028;-63
2022/05/15 09:25:54;;;;;;;10.43;3.90;;;27.30;41.80;;;;;;5129008;27;20038;-63
2022/05/15 09:28:20;;;;;;;12.55;3.67;;;27.30;41.70;;;;;;5130552;27;20072;-63
2022/05/15 09:30:49;;;;;;;9.80;3.25;;;27.50;41.60;;;;;;5128071;27;20032;-63
2022/05/15 09:33:46;;;;;;;10.27;3.50;;;27.50;41.30;;;;;;5133416;27;20023;-63
2022/05/15 09:36:30;;;;;;;14.27;3.50;;;27.60;41.00;;;;;;5136966;27;20051;-63
2022/05/15 09:39:24;;;;;;;10.52;3.83;;;27.70;41.00;;;;;;5116761;27;20502;-63
2022/05/15 09:45:17;;;;;;;8.63;2.80;;;27.80;40.30;;;;;;5135095;27;20428;-63
2022/05/15 09:48:04;;;;;;;11.85;3.53;;;27.80;39.70;;;;;;5126368;27;20027;-63
2022/05/15 09:50:36;;;;;;;11.13;3.58;;;27.90;39.30;;;;;;5116125;28;20100;-63
2022/05/15 09:53:06;;;;;;;10.60;3.10;;;28.00;38.40;;;;;;5107437;27;20034;-63
2022/05/15 09:55:32;;;;;;;10.10;3.33;;;28.00;38.50;;;;;;5129333;27;20031;-63
2022/05/15 09:58:03;;;;;;;10.32;3.00;;;28.10;39.20;;;;;;5115414;27;20042;-63
2022/05/15 10:00:34;;;;;;;8.52;3.05;;;28.00;38.30;;;;;;5134829;27;20038;-63
2022/05/15 10:03:15;;;;;;;12.82;3.50;;;28.10;38.30;;;;;;5120788;27;20022;-64
2022/05/15 10:05:41;;;;;;;;;;;28.10;38.30;;;;;;5136167;27;20034;-64
2022/05/15 10:08:27;;;;;;;8.32;2.92;;;28.20;38.50;;;;;;5126388;27;19907;-64
2022/05/15 10:10:56;;;;;;;8.73;2.83;;;28.20;38.60;;;;;;5136929;27;20029;-65
2022/05/15 10:13:50;;;;;;;8.70;3.67;;;28.10;38.70;;;;;;5115899;27;20027;-65
2022/05/15 10:16:18;;;;;;;7.72;3.25;;;28.00;38.60;;;;;;5119555;27;20027;-63
2022/05/15 10:18:54;;;;;;;10.10;3.17;;;28.10;38.70;;;;;;5134922;27;20050;-63
2022/05/15 10:21:22;;;;;;;12.82;3.63;;;28.10;38.40;;;;;;5130007;27;20447;-63
2022/05/15 10:23:59;;;;;;;9.38;3.63;;;28.20;38.50;;;;;;5116232;27;20084;-63
2022/05/15 10:26:32;;;;;;;10.95;3.78;;;28.30;38.40;;;;;;5120297;27;20034;-63
2022/05/15 10:29:11;;;;;;;10.85;3.17;;;28.40;38.20;;;;;;5121397;27;20050;-63
2022/05/15 10:31:51;;;;;;;10.38;3.38;;;28.60;37.80;;;;;;5130469;27;20016;-63
2022/05/15 10:34:23;;;;;;;9.00;3.10;;;28.60;37.30;;;;;;5113546;27;20352;-63
2022/05/15 10:37:13;;;;;;;9.65;2.85;;;28.60;37.30;;;;;;5119501;27;20424;-63
2022/05/15 10:40:05;;;;;;;9.35;3.28;;;28.60;37.00;;;;;;5132047;27;20035;-63
2022/05/15 10:43:01;;;;;;;7.95;2.55;;;28.70;36.80;;;;;;5133700;27;20027;-63
2022/05/15 10:45:29;;;;;;;9.25;2.85;;;28.80;36.70;;;;;;5117134;27;20468;-63
2022/05/15 10:48:26;;;;;;;7.50;2.33;;;28.80;36.30;;;;;;5122603;27;20035;-63
2022/05/15 10:51:21;;;;;;;8.40;2.65;;;28.80;35.70;;;;;;5121321;27;20084;-63
2022/05/15 10:57:30;;;;;;;9.13;2.70;;;28.90;35.30;;;;;;5118856;27;20068;-63
2022/05/15 11:00:11;;;;;;;6.15;2.35;;;28.90;35.00;;;;;;5112220;28;20173;-64
2022/05/15 11:03:14;;;;;;;8.88;2.60;;;28.90;34.90;;;;;;5123784;27;20032;-64
2022/05/15 11:05:51;;;;;;;8.27;2.67;;;28.90;34.60;;;;;;5118731;27;20043;-63
2022/05/15 11:08:43;;;;;;;7.35;2.45;;;28.80;34.60;;;;;;5115137;28;20069;-63
2022/05/15 11:11:33;;;;;;;8.88;2.90;;;28.90;34.70;;;;;;5115801;28;20119;-63
2022/05/15 11:14:12;;;;;;;8.80;2.42;;;28.90;34.40;;;;;;5114222;28;20027;-63
2022/05/15 11:17:11;;;;;;;11.65;3.05;;;28.80;34.50;;;;;;5115536;28;20046;-63
2022/05/15 11:19:43;;;;;;;6.50;2.35;;;28.90;34.60;;;;;;5115155;28;20050;-63
2022/05/15 11:22:37;;;;;;;6.97;2.60;;;28.80;34.50;;;;;;5125203;27;20146;-63
2022/05/15 11:25:17;;;;;;;7.60;2.75;;;28.80;34.40;;;;;;5135909;27;20088;-63
2022/05/15 11:27:53;;;;;;;7.57;2.50;;;28.80;34.50;;;;;;5135709;27;20034;-63
2022/05/15 11:30:31;;;;;;;7.97;2.45;;;28.90;34.60;;;;;;5135522;27;20064;-63
2022/05/15 11:33:08;;;;;;;6.22;2.63;;;28.90;34.40;;;;;;5135760;27;20351;-63
2022/05/15 11:36:14;;;;;;;7.57;2.50;;;28.90;34.40;;;;;;5129478;27;20123;-63
2022/05/15 11:39:19;;;;;;;8.63;2.22;;;28.90;34.30;;;;;;5129457;28;20471;-63
2022/05/15 11:42:08;;;;;;;9.95;2.45;;;28.90;34.30;;;;;;5125094;28;20027;-63
2022/05/15 11:44:39;;;;;;;7.40;2.30;;;28.90;34.40;;;;;;5134887;28;20026;-63
2022/05/15 11:47:25;;;;;;;7.85;2.30;;;28.90;34.20;;;;;;5127295;27;20051;-63
2022/05/15 11:50:10;;;;;;;7.05;2.22;;;28.90;33.90;;;;;;5115100;28;20027;-63
2022/05/15 11:52:37;;;;;;;9.38;2.65;;;28.80;33.90;;;;;;5116248;28;20424;-63
2022/05/15 11:55:37;;;;;;;8.70;2.55;;;28.70;33.70;;;;;;5114802;28;20159;-64
2022/05/15 11:58:30;;;;;;;7.57;2.53;;;28.60;33.40;;;;;;5129044;28;20028;-64
2022/05/15 12:01:08;;;;;;;10.40;2.47;;;28.60;33.50;;;;;;5134058;27;20087;-63
2022/05/15 12:03:39;;;;;;;6.50;2.13;;;28.50;33.50;;;;;;5135050;27;20352;-64
2022/05/15 12:06:17;;;;;;;8.07;2.55;;;28.40;33.10;;;;;;5129636;27;20039;-63
2022/05/15 12:08:44;;;;;;;5.93;1.92;;;28.30;32.90;;;;;;5120067;28;20054;-63
2022/05/15 12:11:32;;;;;;;8.52;2.10;;;28.20;32.90;;;;;;5113468;28;20032;-63
2022/05/15 12:14:00;;;;;;;6.22;2.40;;;28.10;32.70;;;;;;5128229;28;20019;-64
2022/05/15 12:16:33;;;;;;;7.50;2.33;;;28.00;33.00;;;;;;5128539;27;20059;-64
2022/05/15 12:19:02;;;;;;;8.10;2.60;;;28.00;33.20;;;;;;5144361;27;20046;-64
2022/05/15 12:21:38;;;;;;;8.07;2.35;;;28.00;33.20;;;;;;5120065;27;20428;-64
2022/05/15 12:26:56;;;;;;;6.10;2.00;;;27.80;33.00;;;;;;5117121;28;20051;-64
2022/05/15 12:29:40;;;;;;;4.97;1.92;;;27.80;33.00;;;;;;5113220;28;20027;-64
2022/05/15 12:32:14;;;;;;;6.63;2.05;;;27.80;32.80;;;;;;5127419;27;20054;-64
2022/05/15 12:34:46;;;;;;;5.60;2.22;;;27.70;32.50;;;;;;5117059;27;20115;-64
2022/05/15 12:37:30;;;;;;;6.78;2.20;;;27.60;32.40;;;;;;5142966;27;20561;-64
2022/05/15 12:40:00;;;;;;;6.40;2.08;;;27.50;32.10;;;;;;5119695;27;20028;-64
2022/05/15 12:42:37;;;;;;;5.50;2.03;;;27.40;31.90;;;;;;5129647;27;20038;-64
2022/05/15 12:45:12;;;;;;;6.95;1.70;;;27.30;31.50;;;;;;5138817;27;20030;-63
2022/05/15 12:47:39;;;;;;;5.55;2.13;;;27.20;31.50;;;;;;5121166;27;20024;-63
2022/05/15 12:50:18;;;;;;;8.00;1.98;;;27.20;31.70;;;;;;5116301;28;20051;-63
2022/05/15 12:52:44;;;;;;;7.03;1.95;;;27.10;32.00;;;;;;5128490;27;20123;-64
2022/05/15 12:55:21;;;;;;;10.57;2.65;;;27.10;32.10;;;;;;5127665;27;20038;-64
2022/05/15 12:57:52;;;;;;;8.18;2.08;;;27.00;32.00;;;;;;5137245;27;20046;-64
2022/05/15 13:00:22;;;;;;;9.45;2.67;;;26.90;32.30;;;;;;5135070;27;20243;-64
2022/05/15 13:02:48;;;;;;;6.88;2.08;;;26.90;32.40;;;;;;5130055;27;20359;-64
2022/05/15 13:05:28;;;;;;;8.65;2.17;;;26.90;32.60;;;;;;5131458;27;20042;-64
2022/05/15 13:08:01;;;;;;;7.78;2.50;;;26.90;32.60;;;;;;5119106;27;20314;-63
2022/05/15 13:10:27;;;;;;;6.65;2.15;;;26.80;32.70;;;;;;5132874;27;20028;-63
2022/05/15 13:12:57;;;;;;;7.82;2.22;;;26.80;32.80;;;;;;5135875;27;20042;-64
2022/05/15 13:15:28;;;;;;;5.65;1.90;;;26.70;32.80;;;;;;5130815;27;20026;-62
2022/05/15 13:18:00;;;;;;;7.05;2.42;;;26.70;33.00;;;;;;5135051;27;20160;-63
2022/05/15 13:20:28;;;;;;;6.05;1.95;;;26.60;33.00;;;;;;5134679;27;20031;-63
2022/05/15 13:22:54;;;;;;;6.97;2.15;;;26.60;33.10;;;;;;5119910;27;20031;-63
2022/05/15 13:25:33;;;;;;;6.90;2.13;;;26.60;33.10;;;;;;5123971;27;20046;-64